sensor_id;sensor_type;location;lat;lon;timestamp;temperature;humidity
17843;DHT22;69286;48.222;16.332;2024-02-14T00:02:19;6.50;99.90
17843;DHT22;69286;48.222;16.332;2024-02-14T00:04:46;6.50;99.90
17843;DHT22;69286;48.222;16.332;2024-02-14T00:07:13;6.50;99.90
17843;DHT22;69286;48.222;16.332;2024-02-14T00:09:40;6.50;99.90
17843;DHT22;69286;48.222;16.332;2024-02-14T00:12:07;6.50;99.90
17843;DHT22;69286;48.222;16.332;2024-02-14T00:14:38;6.50;99.90
17843;DHT22;69286;48.222;16.332;2024-02-14T00:17:05;6.50;99.90
17843;DHT22;69286;48.222;16.332;2024-02-14T00:19:32;6.50;99.90
17843;DHT22;69286;48.222;16.332;2024-02-14T00:21:59;6.50;99.90
17843;DHT22;69286;48.222;16.332;2024-02-14T00:24:26;6.50;99.90
17843;DHT22;69286;48.222;16.332;2024-02-14T00:26:55;6.50;99.90
17843;DHT22;69286;48.222;16.332;2024-02-14T00:29:22;6.50;99.90
17843;DHT22;69286;48.222;16.332;2024-02-14T00:31:51;6.40;99.90
17843;DHT22;69286;48.222;16.332;2024-02-14T00:34:18;6.40;99.90
17843;DHT22;69286;48.222;16.332;2024-02-14T00:36:44;6.40;99.90
17843;DHT22;69286;48.222;16.332;2024-02-14T00:39:12;6.40;99.90
17843;DHT22;69286;48.222;16.332;2024-02-14T00:41:39;6.40;99.90
17843;DHT22;69286;48.222;16.332;2024-02-14T00:44:06;6.40;99.90
17843;DHT22;69286;48.222;16.332;2024-02-14T00:46:33;6.40;99.90
17843;DHT22;69286;48.222;16.332;2024-02-14T00:49:01;6.40;99.90
17843;DHT22;69286;48.222;16.332;2024-02-14T00:51:28;6.40;99.90
17843;DHT22;69286;48.222;16.332;2024-02-14T00:53:55;6.40;99.90
17843;DHT22;69286;48.222;16.332;2024-02-14T00:56:22;6.40;99.90
17843;DHT22;69286;48.222;16.332;2024-02-14T00:58:49;6.40;99.90
17843;DHT22;69286;48.222;16.332;2024-02-14T01:01:16;6.40;99.90
17843;DHT22;69286;48.222;16.332;2024-02-14T01:03:43;6.40;99.90
17843;DHT22;69286;48.222;16.332;2024-02-14T01:06:11;6.30;99.90
17843;DHT22;69286;48.222;16.332;2024-02-14T01:08:39;6.30;99.90
17843;DHT22;69286;48.222;16.332;2024-02-14T01:11:07;6.30;99.90
17843;DHT22;69286;48.222;16.332;2024-02-14T01:13:34;6.30;99.90
17843;DHT22;69286;48.222;16.332;2024-02-14T01:16:01;6.30;99.90
17843;DHT22;69286;48.222;16.332;2024-02-14T01:18:29;6.20;99.90
17843;DHT22;69286;48.222;16.332;2024-02-14T01:20:55;6.20;99.90
17843;DHT22;69286;48.222;16.332;2024-02-14T01:23:25;6.20;99.90
17843;DHT22;69286;48.222;16.332;2024-02-14T01:25:52;6.20;99.90
17843;DHT22;69286;48.222;16.332;2024-02-14T01:28:20;6.20;99.90
17843;DHT22;69286;48.222;16.332;2024-02-14T01:30:47;6.20;99.90
17843;DHT22;69286;48.222;16.332;2024-02-14T01:33:14;6.20;99.90
17843;DHT22;69286;48.222;16.332;2024-02-14T01:35:42;6.20;99.90
17843;DHT22;69286;48.222;16.332;2024-02-14T01:38:09;6.10;99.90
17843;DHT22;69286;48.222;16.332;2024-02-14T01:40:41;6.20;99.90
17843;DHT22;69286;48.222;16.332;2024-02-14T01:43:09;6.10;99.90
17843;DHT22;69286;48.222;16.332;2024-02-14T01:45:37;6.10;99.90
17843;DHT22;69286;48.222;16.332;2024-02-14T01:48:06;6.10;99.90
17843;DHT22;69286;48.222;16.332;2024-02-14T01:50:34;6.10;99.90
17843;DHT22;69286;48.222;16.332;2024-02-14T01:53:01;6.00;99.90
17843;DHT22;69286;48.222;16.332;2024-02-14T01:55:29;6.00;99.90
17843;DHT22;69286;48.222;16.332;2024-02-14T01:57:58;6.00;99.90
17843;DHT22;69286;48.222;16.332;2024-02-14T02:00:25;6.00;99.90
17843;DHT22;69286;48.222;16.332;2024-02-14T02:02:53;5.90;99.90
17843;DHT22;69286;48.222;16.332;2024-02-14T02:05:21;5.90;99.90
17843;DHT22;69286;48.222;16.332;2024-02-14T02:07:48;5.90;99.90
17843;DHT22;69286;48.222;16.332;2024-02-14T02:10:16;5.90;99.90
17843;DHT22;69286;48.222;16.332;2024-02-14T02:12:43;5.90;99.90
17843;DHT22;69286;48.222;16.332;2024-02-14T02:15:11;5.90;99.90
17843;DHT22;69286;48.222;16.332;2024-02-14T02:17:40;5.80;99.90
17843;DHT22;69286;48.222;16.332;2024-02-14T02:20:08;5.80;99.90
17843;DHT22;69286;48.222;16.332;2024-02-14T02:22:35;5.80;99.90
17843;DHT22;69286;48.222;16.332;2024-02-14T02:25:04;5.80;99.90
17843;DHT22;69286;48.222;16.332;2024-02-14T02:27:33;5.80;99.90
17843;DHT22;69286;48.222;16.332;2024-02-14T02:30:04;5.80;99.90
17843;DHT22;69286;48.222;16.332;2024-02-14T02:32:31;5.70;99.90
17843;DHT22;69286;48.222;16.332;2024-02-14T02:34:58;5.70;99.90
17843;DHT22;69286;48.222;16.332;2024-02-14T02:37:25;5.70;99.90
17843;DHT22;69286;48.222;16.332;2024-02-14T02:39:54;5.60;99.90
17843;DHT22;69286;48.222;16.332;2024-02-14T02:42:22;5.60;99.90
17843;DHT22;69286;48.222;16.332;2024-02-14T02:44:50;5.50;99.90
17843;DHT22;69286;48.222;16.332;2024-02-14T02:47:17;5.50;99.90
17843;DHT22;69286;48.222;16.332;2024-02-14T02:49:44;5.40;99.90
17843;DHT22;69286;48.222;16.332;2024-02-14T02:52:11;5.40;99.90
17843;DHT22;69286;48.222;16.332;2024-02-14T02:54:39;5.40;99.90
17843;DHT22;69286;48.222;16.332;2024-02-14T02:57:08;5.40;99.90
17843;DHT22;69286;48.222;16.332;2024-02-14T02:59:37;5.40;99.90
17843;DHT22;69286;48.222;16.332;2024-02-14T03:02:07;5.30;99.90
17843;DHT22;69286;48.222;16.332;2024-02-14T03:04:35;5.30;99.90
17843;DHT22;69286;48.222;16.332;2024-02-14T03:07:02;5.20;99.90
17843;DHT22;69286;48.222;16.332;2024-02-14T03:09:32;5.20;99.90
17843;DHT22;69286;48.222;16.332;2024-02-14T03:11:59;5.20;99.90
17843;DHT22;69286;48.222;16.332;2024-02-14T03:14:29;5.20;99.90
17843;DHT22;69286;48.222;16.332;2024-02-14T03:16:59;5.10;99.90
17843;DHT22;69286;48.222;16.332;2024-02-14T03:19:28;5.10;99.90
17843;DHT22;69286;48.222;16.332;2024-02-14T03:21:55;5.00;99.90
17843;DHT22;69286;48.222;16.332;2024-02-14T03:24:22;5.00;99.90
17843;DHT22;69286;48.222;16.332;2024-02-14T03:26:51;5.00;99.90
17843;DHT22;69286;48.222;16.332;2024-02-14T03:29:19;5.00;99.90
17843;DHT22;69286;48.222;16.332;2024-02-14T03:31:46;5.00;99.90
17843;DHT22;69286;48.222;16.332;2024-02-14T03:34:15;4.10;99.90
17843;DHT22;69286;48.222;16.332;2024-02-14T03:36:42;4.90;99.90
17843;DHT22;69286;48.222;16.332;2024-02-14T03:39:09;4.90;99.90
17843;DHT22;69286;48.222;16.332;2024-02-14T03:41:36;4.90;99.90
17843;DHT22;69286;48.222;16.332;2024-02-14T03:44:04;4.90;99.90
17843;DHT22;69286;48.222;16.332;2024-02-14T03:46:32;4.90;99.90
17843;DHT22;69286;48.222;16.332;2024-02-14T03:49:00;4.90;99.90
17843;DHT22;69286;48.222;16.332;2024-02-14T03:51:29;4.90;99.90
17843;DHT22;69286;48.222;16.332;2024-02-14T03:53:56;4.90;99.90
17843;DHT22;69286;48.222;16.332;2024-02-14T03:56:24;4.90;99.90
17843;DHT22;69286;48.222;16.332;2024-02-14T03:58:51;4.90;99.90
17843;DHT22;69286;48.222;16.332;2024-02-14T04:01:18;4.90;99.90
17843;DHT22;69286;48.222;16.332;2024-02-14T04:03:46;6.40;99.90
17843;DHT22;69286;48.222;16.332;2024-02-14T04:06:15;4.90;99.90
17843;DHT22;69286;48.222;16.332;2024-02-14T04:08:43;4.90;99.90
17843;DHT22;69286;48.222;16.332;2024-02-14T04:11:10;4.80;99.90
17843;DHT22;69286;48.222;16.332;2024-02-14T04:13:39;4.80;99.90
17843;DHT22;69286;48.222;16.332;2024-02-14T04:16:06;4.80;99.90
17843;DHT22;69286;48.222;16.332;2024-02-14T04:18:34;4.80;99.90
17843;DHT22;69286;48.222;16.332;2024-02-14T04:21:00;4.80;99.90
17843;DHT22;69286;48.222;16.332;2024-02-14T04:23:29;4.70;99.90
17843;DHT22;69286;48.222;16.332;2024-02-14T04:25:58;4.70;99.90
17843;DHT22;69286;48.222;16.332;2024-02-14T04:28:25;4.60;99.90
17843;DHT22;69286;48.222;16.332;2024-02-14T04:30:52;4.60;99.90
17843;DHT22;69286;48.222;16.332;2024-02-14T04:33:21;4.60;99.90
17843;DHT22;69286;48.222;16.332;2024-02-14T04:35:48;4.60;99.90
17843;DHT22;69286;48.222;16.332;2024-02-14T04:38:16;4.60;99.90
17843;DHT22;69286;48.222;16.332;2024-02-14T04:40:44;4.50;99.90
17843;DHT22;69286;48.222;16.332;2024-02-14T04:43:12;4.40;99.90
17843;DHT22;69286;48.222;16.332;2024-02-14T04:45:39;4.50;99.90
17843;DHT22;69286;48.222;16.332;2024-02-14T04:48:06;4.50;99.90
17843;DHT22;69286;48.222;16.332;2024-02-14T04:50:34;4.40;99.90
17843;DHT22;69286;48.222;16.332;2024-02-14T04:53:01;4.40;99.90
17843;DHT22;69286;48.222;16.332;2024-02-14T04:55:28;4.40;99.90
17843;DHT22;69286;48.222;16.332;2024-02-14T04:57:55;4.30;99.90
17843;DHT22;69286;48.222;16.332;2024-02-14T05:00:23;4.30;99.90
17843;DHT22;69286;48.222;16.332;2024-02-14T05:02:50;4.30;99.90
17843;DHT22;69286;48.222;16.332;2024-02-14T05:05:17;4.30;99.90
17843;DHT22;69286;48.222;16.332;2024-02-14T05:07:46;4.30;99.90
17843;DHT22;69286;48.222;16.332;2024-02-14T05:10:13;4.30;99.90
17843;DHT22;69286;48.222;16.332;2024-02-14T05:12:40;4.30;99.90
17843;DHT22;69286;48.222;16.332;2024-02-14T05:15:08;4.40;99.90
17843;DHT22;69286;48.222;16.332;2024-02-14T05:17:36;4.40;99.90
17843;DHT22;69286;48.222;16.332;2024-02-14T05:20:03;4.40;99.90
17843;DHT22;69286;48.222;16.332;2024-02-14T05:22:35;4.40;99.90
17843;DHT22;69286;48.222;16.332;2024-02-14T05:25:03;4.40;99.90
17843;DHT22;69286;48.222;16.332;2024-02-14T05:27:30;4.40;99.90
17843;DHT22;69286;48.222;16.332;2024-02-14T05:29:57;4.50;99.90
17843;DHT22;69286;48.222;16.332;2024-02-14T05:32:24;4.40;99.90
17843;DHT22;69286;48.222;16.332;2024-02-14T05:34:53;4.50;99.90
17843;DHT22;69286;48.222;16.332;2024-02-14T05:37:20;4.50;99.90
17843;DHT22;69286;48.222;16.332;2024-02-14T05:39:47;4.50;99.90
17843;DHT22;69286;48.222;16.332;2024-02-14T05:42:14;4.50;99.90
17843;DHT22;69286;48.222;16.332;2024-02-14T05:44:41;4.50;99.90
17843;DHT22;69286;48.222;16.332;2024-02-14T05:47:09;4.50;99.90
17843;DHT22;69286;48.222;16.332;2024-02-14T05:49:38;4.50;99.90
17843;DHT22;69286;48.222;16.332;2024-02-14T05:52:07;4.50;99.90
17843;DHT22;69286;48.222;16.332;2024-02-14T05:54:34;4.80;99.90
17843;DHT22;69286;48.222;16.332;2024-02-14T05:57:01;4.60;99.90
17843;DHT22;69286;48.222;16.332;2024-02-14T05:59:28;4.60;99.90
17843;DHT22;69286;48.222;16.332;2024-02-14T06:01:56;4.60;99.90
17843;DHT22;69286;48.222;16.332;2024-02-14T06:04:25;4.60;99.90
17843;DHT22;69286;48.222;16.332;2024-02-14T06:06:52;4.70;99.90
17843;DHT22;69286;48.222;16.332;2024-02-14T06:09:20;4.60;99.90
17843;DHT22;69286;48.222;16.332;2024-02-14T06:11:47;4.70;99.90
17843;DHT22;69286;48.222;16.332;2024-02-14T06:14:14;4.70;99.90
17843;DHT22;69286;48.222;16.332;2024-02-14T06:16:41;4.60;99.90
17843;DHT22;69286;48.222;16.332;2024-02-14T06:19:09;4.60;99.90
17843;DHT22;69286;48.222;16.332;2024-02-14T06:21:37;4.70;99.90
17843;DHT22;69286;48.222;16.332;2024-02-14T06:24:04;4.70;99.90
17843;DHT22;69286;48.222;16.332;2024-02-14T06:26:33;4.70;99.90
17843;DHT22;69286;48.222;16.332;2024-02-14T06:29:00;4.70;99.90
17843;DHT22;69286;48.222;16.332;2024-02-14T06:31:28;4.80;99.90
17843;DHT22;69286;48.222;16.332;2024-02-14T06:33:55;5.00;99.90
17843;DHT22;69286;48.222;16.332;2024-02-14T06:36:22;5.10;99.90
17843;DHT22;69286;48.222;16.332;2024-02-14T06:38:48;5.30;99.90
17843;DHT22;69286;48.222;16.332;2024-02-14T06:41:16;5.40;99.90
17843;DHT22;69286;48.222;16.332;2024-02-14T06:43:44;5.60;99.90
17843;DHT22;69286;48.222;16.332;2024-02-14T06:46:11;5.70;99.90
17843;DHT22;69286;48.222;16.332;2024-02-14T06:48:38;5.80;99.90
17843;DHT22;69286;48.222;16.332;2024-02-14T06:51:06;5.90;99.90
17843;DHT22;69286;48.222;16.332;2024-02-14T06:53:33;6.00;99.90
17843;DHT22;69286;48.222;16.332;2024-02-14T06:56:01;6.00;99.90
17843;DHT22;69286;48.222;16.332;2024-02-14T06:58:28;6.10;99.90
17843;DHT22;69286;48.222;16.332;2024-02-14T07:00:57;6.20;99.90
17843;DHT22;69286;48.222;16.332;2024-02-14T07:03:24;6.50;99.90
17843;DHT22;69286;48.222;16.332;2024-02-14T07:05:51;6.50;99.90
17843;DHT22;69286;48.222;16.332;2024-02-14T07:08:17;6.90;99.90
17843;DHT22;69286;48.222;16.332;2024-02-14T07:10:44;7.10;99.90
17843;DHT22;69286;48.222;16.332;2024-02-14T07:13:12;7.30;99.90
17843;DHT22;69286;48.222;16.332;2024-02-14T07:15:39;7.40;99.90
17843;DHT22;69286;48.222;16.332;2024-02-14T07:18:08;7.60;99.90
17843;DHT22;69286;48.222;16.332;2024-02-14T07:20:35;7.80;99.90
17843;DHT22;69286;48.222;16.332;2024-02-14T07:23:02;8.00;99.90
17843;DHT22;69286;48.222;16.332;2024-02-14T07:25:29;8.00;99.90
17843;DHT22;69286;48.222;16.332;2024-02-14T07:27:56;8.00;99.90
17843;DHT22;69286;48.222;16.332;2024-02-14T07:30:23;8.00;99.90
17843;DHT22;69286;48.222;16.332;2024-02-14T07:32:51;7.90;99.90
17843;DHT22;69286;48.222;16.332;2024-02-14T07:35:19;7.80;99.90
17843;DHT22;69286;48.222;16.332;2024-02-14T07:37:46;7.80;99.90
17843;DHT22;69286;48.222;16.332;2024-02-14T07:40:14;7.70;99.90
17843;DHT22;69286;48.222;16.332;2024-02-14T07:42:41;7.60;99.90
17843;DHT22;69286;48.222;16.332;2024-02-14T07:45:09;7.60;99.90
17843;DHT22;69286;48.222;16.332;2024-02-14T07:47:36;7.50;99.90
17843;DHT22;69286;48.222;16.332;2024-02-14T07:50:03;7.50;99.90
17843;DHT22;69286;48.222;16.332;2024-02-14T07:52:31;7.50;99.90
17843;DHT22;69286;48.222;16.332;2024-02-14T07:54:59;7.60;99.90
17843;DHT22;69286;48.222;16.332;2024-02-14T07:57:26;7.60;99.90
17843;DHT22;69286;48.222;16.332;2024-02-14T07:59:53;7.70;99.90
17843;DHT22;69286;48.222;16.332;2024-02-14T08:02:20;7.60;99.90
17843;DHT22;69286;48.222;16.332;2024-02-14T08:04:47;7.60;99.90
17843;DHT22;69286;48.222;16.332;2024-02-14T08:07:14;7.60;99.90
17843;DHT22;69286;48.222;16.332;2024-02-14T08:09:43;7.70;99.90
17843;DHT22;69286;48.222;16.332;2024-02-14T08:12:09;7.70;99.90
17843;DHT22;69286;48.222;16.332;2024-02-14T08:14:37;7.70;99.90
17843;DHT22;69286;48.222;16.332;2024-02-14T08:17:04;7.80;99.90
17843;DHT22;69286;48.222;16.332;2024-02-14T08:19:31;7.80;99.90
17843;DHT22;69286;48.222;16.332;2024-02-14T08:21:58;7.90;99.90
17843;DHT22;69286;48.222;16.332;2024-02-14T08:24:26;8.00;99.90
17843;DHT22;69286;48.222;16.332;2024-02-14T08:26:54;8.00;99.90
17843;DHT22;69286;48.222;16.332;2024-02-14T08:29:21;8.20;99.90
17843;DHT22;69286;48.222;16.332;2024-02-14T08:31:48;8.30;99.90
17843;DHT22;69286;48.222;16.332;2024-02-14T08:34:15;8.30;99.90
17843;DHT22;69286;48.222;16.332;2024-02-14T08:36:42;8.50;99.90
17843;DHT22;69286;48.222;16.332;2024-02-14T08:39:10;8.50;99.90
17843;DHT22;69286;48.222;16.332;2024-02-14T08:41:37;8.50;99.90
17843;DHT22;69286;48.222;16.332;2024-02-14T08:44:08;8.60;99.90
17843;DHT22;69286;48.222;16.332;2024-02-14T08:46:34;8.70;99.90
17843;DHT22;69286;48.222;16.332;2024-02-14T08:49:01;9.00;99.90
17843;DHT22;69286;48.222;16.332;2024-02-14T08:51:33;9.30;99.70
17843;DHT22;69286;48.222;16.332;2024-02-14T08:54:00;9.60;98.70
17843;DHT22;69286;48.222;16.332;2024-02-14T08:56:32;10.00;97.90
17843;DHT22;69286;48.222;16.332;2024-02-14T08:59:00;10.00;97.00
17843;DHT22;69286;48.222;16.332;2024-02-14T09:01:29;10.00;96.90
17843;DHT22;69286;48.222;16.332;2024-02-14T09:03:56;9.90;96.70
17843;DHT22;69286;48.222;16.332;2024-02-14T09:06:25;10.00;96.60
17843;DHT22;69286;48.222;16.332;2024-02-14T09:08:53;10.10;96.40
17843;DHT22;69286;48.222;16.332;2024-02-14T09:11:20;10.10;96.20
17843;DHT22;69286;48.222;16.332;2024-02-14T09:13:48;10.20;96.40
17843;DHT22;69286;48.222;16.332;2024-02-14T09:16:19;10.40;95.80
17843;DHT22;69286;48.222;16.332;2024-02-14T09:18:49;10.50;95.70
17843;DHT22;69286;48.222;16.332;2024-02-14T09:21:16;10.50;95.50
17843;DHT22;69286;48.222;16.332;2024-02-14T09:23:43;10.60;95.60
17843;DHT22;69286;48.222;16.332;2024-02-14T09:26:11;10.80;94.80
17843;DHT22;69286;48.222;16.332;2024-02-14T09:28:40;10.90;94.60
17843;DHT22;69286;48.222;16.332;2024-02-14T09:31:07;11.20;94.10
17843;DHT22;69286;48.222;16.332;2024-02-14T09:33:36;11.40;93.60
17843;DHT22;69286;48.222;16.332;2024-02-14T09:36:05;11.70;93.10
17843;DHT22;69286;48.222;16.332;2024-02-14T09:38:33;12.00;92.90
17843;DHT22;69286;48.222;16.332;2024-02-14T09:41:06;12.00;92.20
17843;DHT22;69286;48.222;16.332;2024-02-14T09:43:38;12.20;91.70
17843;DHT22;69286;48.222;16.332;2024-02-14T09:46:07;12.40;91.10
17843;DHT22;69286;48.222;16.332;2024-02-14T09:48:35;12.50;91.00
17843;DHT22;69286;48.222;16.332;2024-02-14T09:51:06;12.70;90.30
17843;DHT22;69286;48.222;16.332;2024-02-14T09:53:34;12.90;89.20
17843;DHT22;69286;48.222;16.332;2024-02-14T09:56:02;13.10;88.00
17843;DHT22;69286;48.222;16.332;2024-02-14T09:58:29;13.40;87.30
17843;DHT22;69286;48.222;16.332;2024-02-14T10:00:57;13.50;86.50
17843;DHT22;69286;48.222;16.332;2024-02-14T10:03:24;13.60;85.30
17843;DHT22;69286;48.222;16.332;2024-02-14T10:05:52;13.60;84.60
17843;DHT22;69286;48.222;16.332;2024-02-14T10:08:20;13.50;85.40
17843;DHT22;69286;48.222;16.332;2024-02-14T10:10:47;13.50;85.50
17843;DHT22;69286;48.222;16.332;2024-02-14T10:13:15;13.30;86.70
17843;DHT22;69286;48.222;16.332;2024-02-14T10:15:42;13.20;86.50
17843;DHT22;69286;48.222;16.332;2024-02-14T10:18:09;13.30;86.30
17843;DHT22;69286;48.222;16.332;2024-02-14T10:20:37;13.50;85.70
17843;DHT22;69286;48.222;16.332;2024-02-14T10:23:10;13.80;84.70
17843;DHT22;69286;48.222;16.332;2024-02-14T10:25:39;14.00;83.70
17843;DHT22;69286;48.222;16.332;2024-02-14T10:28:09;14.20;83.10
17843;DHT22;69286;48.222;16.332;2024-02-14T10:30:38;14.30;82.00
17843;DHT22;69286;48.222;16.332;2024-02-14T10:33:07;14.40;81.70
17843;DHT22;69286;48.222;16.332;2024-02-14T10:35:38;14.60;80.70
17843;DHT22;69286;48.222;16.332;2024-02-14T10:38:08;14.70;80.70
17843;DHT22;69286;48.222;16.332;2024-02-14T10:40:35;14.80;79.90
17843;DHT22;69286;48.222;16.332;2024-02-14T10:43:05;15.10;78.30
17843;DHT22;69286;48.222;16.332;2024-02-14T10:45:33;15.30;77.70
17843;DHT22;69286;48.222;16.332;2024-02-14T10:48:04;15.50;77.20
17843;DHT22;69286;48.222;16.332;2024-02-14T10:50:33;15.60;76.10
17843;DHT22;69286;48.222;16.332;2024-02-14T10:53:05;15.50;76.20
17843;DHT22;69286;48.222;16.332;2024-02-14T10:55:34;15.50;76.50
17843;DHT22;69286;48.222;16.332;2024-02-14T10:58:01;15.60;76.20
17843;DHT22;69286;48.222;16.332;2024-02-14T11:00:31;15.50;76.20
17843;DHT22;69286;48.222;16.332;2024-02-14T11:02:59;15.30;76.40
17843;DHT22;69286;48.222;16.332;2024-02-14T11:05:27;15.10;76.80
17843;DHT22;69286;48.222;16.332;2024-02-14T11:07:54;15.10;77.40
17843;DHT22;69286;48.222;16.332;2024-02-14T11:10:22;15.30;77.20
17843;DHT22;69286;48.222;16.332;2024-02-14T11:12:50;15.50;77.10
17843;DHT22;69286;48.222;16.332;2024-02-14T11:15:19;15.40;76.50
17843;DHT22;69286;48.222;16.332;2024-02-14T11:17:48;15.50;76.10
17843;DHT22;69286;48.222;16.332;2024-02-14T11:20:19;15.50;76.10
17843;DHT22;69286;48.222;16.332;2024-02-14T11:22:53;15.60;76.40
17843;DHT22;69286;48.222;16.332;2024-02-14T11:25:31;15.60;76.20
17843;DHT22;69286;48.222;16.332;2024-02-14T11:28:00;15.50;76.40
17843;DHT22;69286;48.222;16.332;2024-02-14T11:30:31;15.50;76.00
17843;DHT22;69286;48.222;16.332;2024-02-14T11:33:16;15.20;76.70
17843;DHT22;69286;48.222;16.332;2024-02-14T11:35:44;15.00;77.30
17843;DHT22;69286;48.222;16.332;2024-02-14T11:38:11;15.00;77.90
17843;DHT22;69286;48.222;16.332;2024-02-14T11:40:39;15.00;78.20
17843;DHT22;69286;48.222;16.332;2024-02-14T11:43:11;15.10;77.80
17843;DHT22;69286;48.222;16.332;2024-02-14T11:45:38;15.30;77.70
17843;DHT22;69286;48.222;16.332;2024-02-14T11:48:09;15.40;77.60
17843;DHT22;69286;48.222;16.332;2024-02-14T11:50:39;15.50;77.00
17843;DHT22;69286;48.222;16.332;2024-02-14T11:53:06;15.70;76.70
17843;DHT22;69286;48.222;16.332;2024-02-14T11:55:35;16.00;74.00
17843;DHT22;69286;48.222;16.332;2024-02-14T11:58:06;16.20;74.20
17843;DHT22;69286;48.222;16.332;2024-02-14T12:00:37;16.50;73.70
17843;DHT22;69286;48.222;16.332;2024-02-14T12:03:07;16.80;71.70
17843;DHT22;69286;48.222;16.332;2024-02-14T12:05:34;17.00;69.90
17843;DHT22;69286;48.222;16.332;2024-02-14T12:08:05;17.20;69.90
17843;DHT22;69286;48.222;16.332;2024-02-14T12:10:32;17.30;68.60
17843;DHT22;69286;48.222;16.332;2024-02-14T12:13:06;17.50;68.30
17843;DHT22;69286;48.222;16.332;2024-02-14T12:15:38;17.40;67.90
17843;DHT22;69286;48.222;16.332;2024-02-14T12:18:05;17.40;67.70
17843;DHT22;69286;48.222;16.332;2024-02-14T12:20:32;17.20;67.40
17843;DHT22;69286;48.222;16.332;2024-02-14T12:22:59;17.10;67.80
17843;DHT22;69286;48.222;16.332;2024-02-14T12:25:29;17.00;66.80
17843;DHT22;69286;48.222;16.332;2024-02-14T12:27:56;16.80;67.20
17843;DHT22;69286;48.222;16.332;2024-02-14T12:30:41;16.40;67.50
17843;DHT22;69286;48.222;16.332;2024-02-14T12:33:10;16.20;67.50
17843;DHT22;69286;48.222;16.332;2024-02-14T12:35:44;16.00;68.00
17843;DHT22;69286;48.222;16.332;2024-02-14T12:38:12;16.00;68.20
17843;DHT22;69286;48.222;16.332;2024-02-14T12:40:41;15.80;68.00
17843;DHT22;69286;48.222;16.332;2024-02-14T12:43:09;15.70;68.30
17843;DHT22;69286;48.222;16.332;2024-02-14T12:45:37;15.60;68.20
17843;DHT22;69286;48.222;16.332;2024-02-14T12:48:05;15.60;68.10
17843;DHT22;69286;48.222;16.332;2024-02-14T12:50:34;15.60;68.60
17843;DHT22;69286;48.222;16.332;2024-02-14T12:53:03;15.60;68.20
17843;DHT22;69286;48.222;16.332;2024-02-14T12:55:30;15.60;68.50
17843;DHT22;69286;48.222;16.332;2024-02-14T12:57:59;15.60;69.00
17843;DHT22;69286;48.222;16.332;2024-02-14T13:00:26;15.60;69.50
17843;DHT22;69286;48.222;16.332;2024-02-14T13:02:54;15.50;69.40
17843;DHT22;69286;48.222;16.332;2024-02-14T13:05:22;15.40;69.90
17843;DHT22;69286;48.222;16.332;2024-02-14T13:07:51;15.40;70.10
17843;DHT22;69286;48.222;16.332;2024-02-14T13:10:18;15.30;70.90
17843;DHT22;69286;48.222;16.332;2024-02-14T13:12:45;15.10;71.80
17843;DHT22;69286;48.222;16.332;2024-02-14T13:15:14;15.00;72.30
17843;DHT22;69286;48.222;16.332;2024-02-14T13:17:43;14.90;73.10
17843;DHT22;69286;48.222;16.332;2024-02-14T13:20:11;14.90;73.50
17843;DHT22;69286;48.222;16.332;2024-02-14T13:22:41;14.90;73.10
17843;DHT22;69286;48.222;16.332;2024-02-14T13:25:08;14.80;73.70
17843;DHT22;69286;48.222;16.332;2024-02-14T13:27:38;14.70;73.80
17843;DHT22;69286;48.222;16.332;2024-02-14T13:30:06;14.70;74.10
17843;DHT22;69286;48.222;16.332;2024-02-14T13:32:35;14.70;74.20
17843;DHT22;69286;48.222;16.332;2024-02-14T13:35:03;14.70;74.40
17843;DHT22;69286;48.222;16.332;2024-02-14T13:37:32;14.80;74.40
17843;DHT22;69286;48.222;16.332;2024-02-14T13:40:00;14.80;74.40
17843;DHT22;69286;48.222;16.332;2024-02-14T13:42:30;14.80;74.00
17843;DHT22;69286;48.222;16.332;2024-02-14T13:44:57;14.90;74.10
17843;DHT22;69286;48.222;16.332;2024-02-14T13:47:24;14.90;74.60
17843;DHT22;69286;48.222;16.332;2024-02-14T13:49:53;14.80;74.50
17843;DHT22;69286;48.222;16.332;2024-02-14T13:52:20;14.70;74.40
17843;DHT22;69286;48.222;16.332;2024-02-14T13:54:47;14.70;74.50
17843;DHT22;69286;48.222;16.332;2024-02-14T13:57:14;14.60;75.00
17843;DHT22;69286;48.222;16.332;2024-02-14T13:59:41;14.60;75.30
17843;DHT22;69286;48.222;16.332;2024-02-14T14:02:08;14.50;75.60
17843;DHT22;69286;48.222;16.332;2024-02-14T14:04:36;14.50;75.50
17843;DHT22;69286;48.222;16.332;2024-02-14T14:07:05;14.50;76.00
17843;DHT22;69286;48.222;16.332;2024-02-14T14:09:33;14.40;75.70
17843;DHT22;69286;48.222;16.332;2024-02-14T14:12:01;14.40;76.10
17843;DHT22;69286;48.222;16.332;2024-02-14T14:14:28;14.30;75.60
17843;DHT22;69286;48.222;16.332;2024-02-14T14:16:55;14.30;76.00
17843;DHT22;69286;48.222;16.332;2024-02-14T14:19:24;14.20;75.70
17843;DHT22;69286;48.222;16.332;2024-02-14T14:21:51;14.20;75.90
17843;DHT22;69286;48.222;16.332;2024-02-14T14:24:19;14.10;75.70
17843;DHT22;69286;48.222;16.332;2024-02-14T14:26:46;14.10;75.70
17843;DHT22;69286;48.222;16.332;2024-02-14T14:29:13;14.00;75.60
17843;DHT22;69286;48.222;16.332;2024-02-14T14:31:41;14.00;75.90
17843;DHT22;69286;48.222;16.332;2024-02-14T14:34:08;13.90;75.90
17843;DHT22;69286;48.222;16.332;2024-02-14T14:36:35;13.90;76.10
17843;DHT22;69286;48.222;16.332;2024-02-14T14:39:03;13.80;76.50
17843;DHT22;69286;48.222;16.332;2024-02-14T14:41:31;13.90;77.00
17843;DHT22;69286;48.222;16.332;2024-02-14T14:43:59;13.90;76.40
17843;DHT22;69286;48.222;16.332;2024-02-14T14:46:26;13.80;76.70
17843;DHT22;69286;48.222;16.332;2024-02-14T14:48:53;13.80;76.90
17843;DHT22;69286;48.222;16.332;2024-02-14T14:51:20;13.70;76.90
17843;DHT22;69286;48.222;16.332;2024-02-14T14:53:47;13.70;77.40
17843;DHT22;69286;48.222;16.332;2024-02-14T14:56:15;13.70;77.60
17843;DHT22;69286;48.222;16.332;2024-02-14T14:58:43;13.60;77.40
17843;DHT22;69286;48.222;16.332;2024-02-14T15:01:10;13.60;77.80
17843;DHT22;69286;48.222;16.332;2024-02-14T15:03:39;13.50;77.60
17843;DHT22;69286;48.222;16.332;2024-02-14T15:06:06;13.50;77.80
17843;DHT22;69286;48.222;16.332;2024-02-14T15:08:33;13.40;78.20
17843;DHT22;69286;48.222;16.332;2024-02-14T15:11:00;13.40;78.60
17843;DHT22;69286;48.222;16.332;2024-02-14T15:13:28;13.30;78.60
17843;DHT22;69286;48.222;16.332;2024-02-14T15:15:56;13.40;78.90
17843;DHT22;69286;48.222;16.332;2024-02-14T15:18:26;13.30;78.60
17843;DHT22;69286;48.222;16.332;2024-02-14T15:20:53;13.30;78.90
17843;DHT22;69286;48.222;16.332;2024-02-14T15:23:20;13.30;79.10
17843;DHT22;69286;48.222;16.332;2024-02-14T15:25:47;13.20;79.00
17843;DHT22;69286;48.222;16.332;2024-02-14T15:28:14;13.20;78.90
17843;DHT22;69286;48.222;16.332;2024-02-14T15:30:47;13.20;78.90